createdAt,value
2018-12-16T00:04:52.365Z,94973.27
2018-12-16T00:07:55.738Z,94970.36
2018-12-16T00:10:59.150Z,94975.44
2018-12-16T00:14:02.562Z,94973.14
2018-12-16T00:17:05.922Z,94970.73
2018-12-16T00:20:09.564Z,94977.14
2018-12-16T00:23:12.950Z,94974.43
2018-12-16T00:26:16.298Z,94971.07
2018-12-16T00:29:19.764Z,94973.02
2018-12-16T00:32:23.074Z,94965.37
2018-12-16T00:35:26.451Z,94955.30
2018-12-16T00:38:29.958Z,94940.77
2018-12-16T00:41:33.294Z,94943.70
2018-12-16T00:44:36.604Z,94944.53
2018-12-16T00:47:39.926Z,94949.22
2018-12-16T00:50:43.347Z,94942.39
2018-12-16T00:53:46.695Z,94945.27
2018-12-16T00:56:49.997Z,94939.48
2018-12-16T00:59:53.353Z,94928.89
2018-12-16T01:02:56.764Z,94921.12
2018-12-16T01:06:00.193Z,94916.73
2018-12-16T01:09:05.605Z,94902.03
2018-12-16T01:12:09.084Z,94898.62
2018-12-16T01:15:12.625Z,94896.08
2018-12-16T01:18:16.057Z,94881.52
2018-12-16T01:21:19.406Z,94881.73
2018-12-16T01:24:22.754Z,94875.34
2018-12-16T01:27:26.114Z,94867.12
2018-12-16T01:30:29.489Z,94854.00
2018-12-16T01:33:32.892Z,94845.14
2018-12-16T01:36:36.356Z,94840.19
2018-12-16T01:39:39.693Z,94832.68
2018-12-16T01:42:43.113Z,94823.14
2018-12-16T01:45:46.438Z,94801.08
2018-12-16T01:48:49.849Z,94801.02
2018-12-16T01:51:53.238Z,94790.36
2018-12-16T01:54:56.637Z,94789.20
2018-12-16T01:58:00.043Z,94788.81
2018-12-16T02:01:03.379Z,94791.55
2018-12-16T02:04:06.832Z,94805.09
2018-12-16T02:07:10.206Z,94814.59
2018-12-16T02:10:13.626Z,94812.52
2018-12-16T02:13:17.045Z,94796.69
2018-12-16T02:16:20.357Z,94797.78
2018-12-16T02:19:23.733Z,94803.16
2018-12-16T02:22:27.136Z,94802.23
2018-12-16T02:25:30.481Z,94795.91
2018-12-16T02:28:33.821Z,94787.16
2018-12-16T02:31:37.252Z,94778.11
2018-12-16T02:34:40.719Z,94770.61
2018-12-16T02:37:44.101Z,94763.70
2018-12-16T02:40:47.534Z,94757.58
2018-12-16T02:43:50.952Z,94761.23
2018-12-16T02:46:54.329Z,94758.65
2018-12-16T02:49:57.725Z,94751.16
2018-12-16T02:53:04.459Z,94745.10
2018-12-16T02:56:07.702Z,94742.77
2018-12-16T02:59:11.110Z,94742.56
2018-12-16T03:02:14.557Z,94738.88
2018-12-16T03:05:17.988Z,94736.42
2018-12-16T03:08:21.407Z,94732.67
2018-12-16T03:11:24.742Z,94737.56
2018-12-16T03:14:28.116Z,94740.73
2018-12-16T03:17:31.505Z,94739.14
2018-12-16T03:20:34.909Z,94731.46
2018-12-16T03:23:38.316Z,94734.05
2018-12-16T03:26:41.805Z,94728.30
2018-12-16T03:29:45.117Z,94728.23
2018-12-16T03:32:48.508Z,94731.07
2018-12-16T03:35:52.007Z,94721.83
2018-12-16T03:38:55.317Z,94717.28
2018-12-16T03:41:58.651Z,94711.16
2018-12-16T03:45:02.116Z,94698.36
2018-12-16T03:48:05.524Z,94704.20
2018-12-16T03:51:08.870Z,94702.75
2018-12-16T03:54:12.197Z,94704.22
2018-12-16T03:57:15.524Z,94694.84
2018-12-16T04:00:18.894Z,94690.43
2018-12-16T04:03:22.297Z,94692.86
2018-12-16T04:06:25.699Z,94700.95
2018-12-16T04:09:29.033Z,94682.83
2018-12-16T04:12:32.337Z,94680.63
2018-12-16T04:15:35.686Z,94687.16
2018-12-16T04:18:39.025Z,94680.58
2018-12-16T04:21:42.334Z,94670.22
2018-12-16T04:24:45.688Z,94677.03
2018-12-16T04:27:49.094Z,94683.51
2018-12-16T04:30:52.488Z,94679.33
2018-12-16T04:33:55.894Z,94673.95
2018-12-16T04:36:59.259Z,94687.52
2018-12-16T04:40:02.721Z,94694.77
2018-12-16T04:43:06.094Z,94691.45
2018-12-16T04:46:09.405Z,94707.98
2018-12-16T04:49:12.776Z,94713.11
2018-12-16T04:52:16.185Z,94707.77
2018-12-16T04:55:19.518Z,94699.13
2018-12-16T04:58:22.831Z,94691.98
2018-12-16T05:01:26.272Z,94687.41
2018-12-16T05:04:29.681Z,94690.70
2018-12-16T05:07:32.983Z,94694.16
2018-12-16T05:10:36.374Z,94690.56
2018-12-16T05:13:39.783Z,94689.16
2018-12-16T05:16:43.177Z,94684.95
2018-12-16T05:19:46.574Z,94680.17
2018-12-16T05:22:49.993Z,94682.53
2018-12-16T05:25:53.374Z,94685.06
2018-12-16T05:28:56.781Z,94674.20
2018-12-16T05:32:00.128Z,94672.91
2018-12-16T05:35:04.188Z,94675.23
2018-12-16T05:38:07.601Z,94676.30
2018-12-16T05:41:10.945Z,94673.47
2018-12-16T05:44:14.249Z,94674.30
2018-12-16T05:47:17.608Z,94678.20
2018-12-16T05:50:20.991Z,94680.83
2018-12-16T05:53:24.384Z,94680.28
2018-12-16T05:56:27.741Z,94682.45
2018-12-16T05:59:31.083Z,94687.13
2018-12-16T06:02:34.416Z,94685.59
2018-12-16T06:05:37.805Z,94681.82
2018-12-16T06:08:41.183Z,94664.73
2018-12-16T06:11:44.841Z,94660.22
2018-12-16T06:14:48.182Z,94661.09
2018-12-16T06:17:51.586Z,94655.17
2018-12-16T06:20:54.953Z,94649.80
2018-12-16T06:23:58.283Z,94647.22
2018-12-16T06:27:01.683Z,94651.66
2018-12-16T06:30:06.025Z,94644.95
2018-12-16T06:33:09.331Z,94646.80
2018-12-16T06:36:13.270Z,94638.55
2018-12-16T06:39:16.605Z,94638.08
2018-12-16T06:42:19.910Z,94628.03
2018-12-16T06:45:23.328Z,94616.95
2018-12-16T06:48:26.709Z,94625.79
2018-12-16T06:51:30.234Z,94628.69
2018-12-16T06:54:36.118Z,94631.60
2018-12-16T06:57:39.411Z,94624.38
2018-12-16T07:00:42.741Z,94628.26
2018-12-16T07:03:46.045Z,94632.73
2018-12-16T07:06:49.354Z,94622.94
2018-12-16T07:09:52.897Z,94620.89
2018-12-16T07:12:56.294Z,94620.45
2018-12-16T07:15:59.602Z,94610.34
2018-12-16T07:19:03.037Z,94606.42
2018-12-16T07:22:06.380Z,94615.05
2018-12-16T07:25:09.793Z,94617.07
2018-12-16T07:28:13.306Z,94624.73
2018-12-16T07:31:16.805Z,94628.39
2018-12-16T07:34:20.271Z,94616.77
2018-12-16T07:37:23.595Z,94610.34
2018-12-16T07:40:27.062Z,94604.87
2018-12-16T07:43:30.474Z,94617.69
2018-12-16T07:46:33.872Z,94631.72
2018-12-16T07:49:37.184Z,94635.17
2018-12-16T07:52:40.560Z,94634.19
2018-12-16T07:55:43.980Z,94633.50
2018-12-16T07:58:47.273Z,94632.50
2018-12-16T08:01:50.683Z,94642.87
2018-12-16T08:04:54.120Z,94649.16
2018-12-16T08:07:57.471Z,94640.91
2018-12-16T08:11:00.865Z,94645.38
2018-12-16T08:14:04.261Z,94642.57
2018-12-16T08:17:07.675Z,94648.55
2018-12-16T08:20:11.066Z,94639.48
2018-12-16T08:23:14.463Z,94634.03
2018-12-16T08:26:17.847Z,94629.89
2018-12-16T08:29:21.133Z,94627.07
2018-12-16T08:32:24.561Z,94638.27
2018-12-16T08:35:28.038Z,94648.42
2018-12-16T08:38:31.466Z,94657.02
2018-12-16T08:41:34.858Z,94651.82
2018-12-16T08:44:38.177Z,94655.47
2018-12-16T08:47:41.552Z,94653.13
2018-12-16T08:50:44.860Z,94647.41
2018-12-16T08:53:48.337Z,94652.09
2018-12-16T08:56:51.762Z,94656.02
2018-12-16T08:59:55.061Z,94659.13
2018-12-16T09:02:58.393Z,94659.91
2018-12-16T09:06:01.684Z,94647.15
2018-12-16T09:09:07.033Z,94632.59
2018-12-16T09:12:10.418Z,94626.08
2018-12-16T09:15:13.746Z,94630.02
2018-12-16T09:18:17.041Z,94630.77
2018-12-16T09:21:20.345Z,94623.75
2018-12-16T09:24:23.706Z,94616.99
2018-12-16T09:27:27.016Z,94615.69
2018-12-16T09:30:30.430Z,94617.77
2018-12-16T09:33:33.938Z,94623.49
2018-12-16T09:36:37.347Z,94625.05
2018-12-16T09:39:40.666Z,94638.34
2018-12-16T09:42:44.172Z,94621.89
2018-12-16T09:45:49.565Z,94625.28
2018-12-16T09:48:52.752Z,94621.58
2018-12-16T09:51:56.054Z,94621.27
2018-12-16T09:54:59.385Z,94613.92
2018-12-16T09:58:02.758Z,94606.03
2018-12-16T10:01:06.724Z,94607.08
2018-12-16T10:04:10.361Z,94612.64
2018-12-16T10:07:13.856Z,94614.50
2018-12-16T10:10:17.284Z,94615.75
2018-12-16T10:13:20.737Z,94609.75
2018-12-16T10:16:24.049Z,94608.50
2018-12-16T10:19:27.389Z,94603.78
2018-12-16T10:22:30.713Z,94613.16
2018-12-16T10:25:34.006Z,94608.50
2018-12-16T10:28:37.306Z,94612.95
2018-12-16T10:31:40.683Z,94610.84
2018-12-16T10:34:44.076Z,94613.14
2018-12-16T10:37:47.372Z,94613.11
2018-12-16T10:40:50.689Z,94609.91
2018-12-16T10:43:53.990Z,94617.14
2018-12-16T10:46:57.345Z,94621.27
2018-12-16T10:50:00.740Z,94624.11
2018-12-16T10:53:04.148Z,94613.40
2018-12-16T10:56:07.983Z,94609.12
2018-12-16T10:59:11.333Z,94614.71
2018-12-16T11:02:15.645Z,94612.73
2018-12-16T11:05:19.185Z,94618.45
2018-12-16T11:08:22.618Z,94611.86
2018-12-16T11:11:25.910Z,94606.05
2018-12-16T11:14:29.310Z,94606.11
2018-12-16T11:17:32.784Z,94601.14
2018-12-16T11:20:36.131Z,94590.78
2018-12-16T11:23:39.521Z,94590.99
2018-12-16T11:26:42.951Z,94582.49
2018-12-16T11:29:46.290Z,94579.81
2018-12-16T11:32:49.593Z,94590.09
2018-12-16T11:35:52.874Z,94597.01
2018-12-16T11:39:01.210Z,94592.47
2018-12-16T11:45:21.790Z,94596.23
2018-12-16T11:48:25.146Z,94589.37
2018-12-16T11:51:28.631Z,94590.41
2018-12-16T11:54:31.987Z,94592.84
2018-12-16T11:57:35.317Z,94598.78
2018-12-16T12:00:38.633Z,94598.86
2018-12-16T12:03:42.055Z,94601.16
2018-12-16T12:06:45.460Z,94590.08
2018-12-16T12:09:48.819Z,94587.90
2018-12-16T12:12:52.121Z,94592.05
2018-12-16T12:15:55.583Z,94584.88
2018-12-16T12:19:00.085Z,94581.84
2018-12-16T12:22:04.467Z,94579.73
2018-12-16T12:25:08.059Z,94575.27
2018-12-16T12:28:11.564Z,94570.94
2018-12-16T12:31:14.871Z,94574.75
2018-12-16T12:34:18.173Z,94581.04
2018-12-16T12:37:21.649Z,94572.34
2018-12-16T12:40:25.151Z,94582.77
2018-12-16T12:43:28.503Z,94587.22
2018-12-16T12:46:31.833Z,94595.02
2018-12-16T12:49:35.257Z,94590.61
2018-12-16T12:52:38.553Z,94593.77
2018-12-16T12:55:41.859Z,94604.31
2018-12-16T12:58:45.238Z,94603.13
2018-12-16T13:01:48.594Z,94608.44
2018-12-16T13:04:51.886Z,94608.42
2018-12-16T13:07:55.259Z,94606.52
2018-12-16T13:10:59.344Z,94611.19
2018-12-16T13:14:02.714Z,94608.97
2018-12-16T13:17:06.101Z,94621.79
2018-12-16T13:20:09.567Z,94619.81
2018-12-16T13:23:13.013Z,94613.80
2018-12-16T13:26:16.350Z,94621.58
2018-12-16T13:29:19.641Z,94619.48
2018-12-16T13:32:22.968Z,94618.51
2018-12-16T13:35:26.250Z,94620.09
2018-12-16T13:38:29.598Z,94623.25
2018-12-16T13:41:32.894Z,94629.05
2018-12-16T13:44:36.228Z,94625.36
2018-12-16T13:47:39.622Z,94626.39
2018-12-16T13:50:42.984Z,94626.39
2018-12-16T13:53:47.344Z,94624.62
2018-12-16T13:56:53.229Z,94630.36
2018-12-16T13:59:56.665Z,94634.51
2018-12-16T14:03:00.076Z,94637.57
2018-12-16T14:06:03.467Z,94639.44
2018-12-16T14:09:07.418Z,94644.66
2018-12-16T14:12:10.758Z,94653.04
2018-12-16T14:15:14.100Z,94654.89
2018-12-16T14:18:17.443Z,94656.20
2018-12-16T14:21:20.755Z,94658.58
2018-12-16T14:24:24.062Z,94665.08
2018-12-16T14:27:27.369Z,94666.12
2018-12-16T14:30:30.744Z,94666.34
2018-12-16T14:33:34.405Z,94668.95
2018-12-16T14:36:37.832Z,94673.11
2018-12-16T14:39:41.614Z,94665.83
2018-12-16T14:42:44.968Z,94675.77
2018-12-16T14:45:48.395Z,94671.57
2018-12-16T14:48:51.751Z,94676.26
2018-12-16T14:51:55.135Z,94676.78
2018-12-16T14:54:58.491Z,94677.56
2018-12-16T14:58:01.904Z,94675.66
2018-12-16T15:01:05.356Z,94681.41
2018-12-16T15:04:08.656Z,94686.64
2018-12-16T15:07:12.023Z,94689.79
2018-12-16T15:10:15.439Z,94697.67
2018-12-16T15:13:18.793Z,94699.52
2018-12-16T15:16:22.141Z,94705.27
2018-12-16T15:19:25.565Z,94706.81
2018-12-16T15:22:28.881Z,94705.86
2018-12-16T15:25:32.968Z,94705.40
2018-12-16T15:28:36.323Z,94706.78
2018-12-16T15:31:39.920Z,94701.03
2018-12-16T15:34:43.514Z,94692.47
2018-12-16T15:37:47.005Z,94685.17
2018-12-16T15:40:50.365Z,94696.42
2018-12-16T15:47:10.806Z,94708.50
2018-12-16T15:50:14.181Z,94714.80
2018-12-16T15:53:17.487Z,94716.36
2018-12-16T15:56:21.769Z,94728.38
2018-12-16T15:59:25.182Z,94727.06
2018-12-16T16:02:28.778Z,94730.48
2018-12-16T16:05:32.338Z,94738.34
2018-12-16T16:08:35.643Z,94737.28
2018-12-16T16:11:38.996Z,94735.97
2018-12-16T16:14:42.333Z,94742.26
2018-12-16T16:17:45.728Z,94748.85
2018-12-16T16:20:49.052Z,94751.53
2018-12-16T16:23:52.361Z,94750.23
2018-12-16T16:26:55.749Z,94747.67
2018-12-16T16:29:59.072Z,94738.84
2018-12-16T16:33:02.510Z,94749.03
2018-12-16T16:36:05.832Z,94751.14
2018-12-16T16:39:09.712Z,94750.98
2018-12-16T16:42:13.172Z,94752.88
2018-12-16T16:45:16.541Z,94760.33
2018-12-16T16:48:19.893Z,94767.94
2018-12-16T16:51:23.249Z,94762.19
2018-12-16T16:54:26.712Z,94764.23
2018-12-16T17:01:15.302Z,94771.38
2018-12-16T17:11:27.952Z,94781.25
2018-12-16T17:14:31.266Z,94787.00
2018-12-16T17:17:34.585Z,94789.88
2018-12-16T17:20:37.924Z,94796.47
2018-12-16T17:23:41.394Z,94796.59
2018-12-16T17:26:44.703Z,94797.72
2018-12-16T17:29:48.074Z,94808.95
2018-12-16T17:32:51.385Z,94802.55
2018-12-16T17:35:54.716Z,94804.95
2018-12-16T17:38:58.105Z,94808.86
2018-12-16T17:42:01.421Z,94801.03
2018-12-16T17:45:05.653Z,94808.63
2018-12-16T17:48:08.990Z,94820.63
2018-12-16T17:51:12.377Z,94822.98
2018-12-16T17:54:15.684Z,94814.33
2018-12-16T17:57:19.106Z,94802.05
2018-12-16T18:00:22.562Z,94796.86
2018-12-16T18:03:25.972Z,94800.52
2018-12-16T18:06:29.338Z,94802.86
2018-12-16T18:09:32.713Z,94804.16
2018-12-16T18:12:36.046Z,94804.38
2018-12-16T18:15:39.493Z,94804.61
2018-12-16T18:18:42.822Z,94808.23
2018-12-16T18:21:46.233Z,94807.42
2018-12-16T18:24:49.644Z,94809.73
2018-12-16T18:27:53.078Z,94805.30
2018-12-16T18:30:56.474Z,94804.25
2018-12-16T18:34:05.866Z,94812.61
2018-12-16T18:37:09.239Z,94808.73
2018-12-16T18:40:12.590Z,94807.42
2018-12-16T18:43:15.948Z,94803.80
2018-12-16T18:46:19.409Z,94810.36
2018-12-16T18:49:22.719Z,94814.30
2018-12-16T18:52:26.097Z,94810.36
2018-12-16T18:55:29.414Z,94810.91
2018-12-16T18:58:32.728Z,94811.92
2018-12-16T19:01:36.182Z,94815.08
2018-12-16T19:04:39.512Z,94815.38
2018-12-16T19:07:42.817Z,94817.72
2018-12-16T19:10:46.113Z,94816.39
2018-12-16T19:13:49.452Z,94815.61
2018-12-16T19:16:52.834Z,94810.62
2018-12-16T19:19:56.137Z,94815.31
2018-12-16T19:22:59.497Z,94812.47
2018-12-16T19:26:02.828Z,94813.00
2018-12-16T19:29:06.138Z,94800.80
2018-12-16T19:32:09.561Z,94800.25
2018-12-16T19:35:12.901Z,94807.09
2018-12-16T19:38:16.322Z,94808.91
2018-12-16T19:41:19.643Z,94809.41
2018-12-16T19:44:23.089Z,94808.38
2018-12-16T19:47:26.408Z,94815.14
2018-12-16T19:50:29.835Z,94816.96
2018-12-16T19:53:33.197Z,94816.44
2018-12-16T19:56:36.579Z,94820.33
2018-12-16T19:59:39.885Z,94824.48
2018-12-16T20:02:43.213Z,94823.67
2018-12-16T20:05:51.924Z,94823.15
2018-12-16T20:08:55.306Z,94821.06
2018-12-16T20:11:58.654Z,94826.02
2018-12-16T20:15:02.028Z,94824.45
2018-12-16T20:18:05.383Z,94827.06
2018-12-16T20:21:08.714Z,94829.42
2018-12-16T20:24:12.037Z,94834.66
2018-12-16T20:27:15.337Z,94837.16
2018-12-16T20:30:18.697Z,94839.34
2018-12-16T20:33:22.122Z,94838.86
2018-12-16T20:36:25.424Z,94837.84
2018-12-16T20:39:28.774Z,94843.63
2018-12-16T20:42:32.828Z,94838.16
2018-12-16T20:45:36.210Z,94833.73
2018-12-16T20:48:39.526Z,94846.50
2018-12-16T20:51:42.981Z,94857.74
2018-12-16T20:54:46.313Z,94844.70
2018-12-16T20:57:49.696Z,94851.45
2018-12-16T21:00:56.801Z,94851.75
2018-12-16T21:04:00.805Z,94845.75
2018-12-16T21:07:04.185Z,94850.96
2018-12-16T21:10:07.956Z,94849.67
2018-12-16T21:13:16.737Z,94854.86
2018-12-16T21:19:59.951Z,94850.45
2018-12-16T21:23:04.634Z,94852.53
2018-12-16T21:26:08.437Z,94845.75
2018-12-16T21:29:13.278Z,94848.09
2018-12-16T21:32:16.590Z,94844.72
2018-12-16T21:35:26.319Z,94843.15
2018-12-16T21:38:30.022Z,94836.89
2018-12-16T21:41:33.532Z,94834.53
2018-12-16T21:44:36.863Z,94837.37
2018-12-16T21:47:40.440Z,94837.66
2018-12-16T21:50:43.885Z,94837.89
2018-12-16T21:53:47.295Z,94830.04
2018-12-16T21:56:50.802Z,94829.77
2018-12-16T21:59:54.473Z,94825.59
2018-12-16T22:02:57.836Z,94824.30
2018-12-16T22:06:01.208Z,94819.56
2018-12-16T22:09:06.894Z,94827.13
2018-12-16T22:12:10.281Z,94829.66
2018-12-16T22:18:24.096Z,94819.88
2018-12-16T22:21:27.414Z,94826.94
2018-12-16T22:24:30.769Z,94826.39
2018-12-16T22:27:40.046Z,94835.92
2018-12-16T22:30:39.429Z,94844.56
2018-12-16T22:33:42.805Z,94847.13
2018-12-16T22:36:46.202Z,94850.03
2018-12-16T22:39:49.591Z,94854.42
2018-12-16T22:42:52.912Z,94851.80
2018-12-16T22:45:56.311Z,94853.64
2018-12-16T22:48:59.664Z,94859.06
2018-12-16T22:52:03.054Z,94856.14
2018-12-16T22:55:06.627Z,94860.23
2018-12-16T22:58:09.969Z,94864.08
2018-12-16T23:01:16.219Z,94856.26
2018-12-16T23:04:19.673Z,94857.02
2018-12-16T23:07:23.016Z,94852.88
2018-12-16T23:10:26.335Z,94855.72
2018-12-16T23:13:29.649Z,94850.57
2018-12-16T23:16:33.042Z,94854.77
2018-12-16T23:19:36.361Z,94850.48
2018-12-16T23:22:39.780Z,94847.63
2018-12-16T23:25:43.152Z,94840.83
2018-12-16T23:28:46.468Z,94842.84
2018-12-16T23:31:49.823Z,94845.34
2018-12-16T23:34:53.173Z,94847.38
2018-12-16T23:37:56.499Z,94838.77
2018-12-16T23:40:59.881Z,94834.80
2018-12-16T23:44:03.225Z,94836.56
2018-12-16T23:47:06.577Z,94841.94
2018-12-16T23:50:10.104Z,94837.77
2018-12-16T23:53:13.486Z,94831.48
2018-12-16T23:56:19.040Z,94826.94
2018-12-16T23:59:22.883Z,94825.77
